createdAt,value
2018-12-13T00:01:32.120Z,1.70
2018-12-13T00:03:58.808Z,1.80
2018-12-13T00:06:25.530Z,2.10
2018-12-13T00:08:52.342Z,6.23
2018-12-13T00:11:19.235Z,3.17
2018-12-13T00:13:46.186Z,6.87
2018-12-13T00:16:13.464Z,2.40
2018-12-13T00:18:40.422Z,6.23
2018-12-13T00:21:07.212Z,2.50
2018-12-13T00:23:33.913Z,2.20
2018-12-13T00:26:00.787Z,2.57
2018-12-13T00:28:27.494Z,4.17
2018-12-13T00:30:54.460Z,4.00
2018-12-13T00:33:21.141Z,4.20
2018-12-13T00:35:47.844Z,2.13
2018-12-13T00:38:14.519Z,1.77
2018-12-13T00:40:41.227Z,4.60
2018-12-13T00:43:07.929Z,2.23
2018-12-13T00:45:34.741Z,1.77
2018-12-13T00:48:01.451Z,2.00
2018-12-13T00:50:28.187Z,1.90
2018-12-13T00:52:55.983Z,1.55
2018-12-13T00:55:22.699Z,7.03
2018-12-13T00:57:49.382Z,1.60
2018-12-13T01:00:16.129Z,3.47
2018-12-13T01:02:42.826Z,2.50
2018-12-13T01:05:09.504Z,2.13
2018-12-13T01:07:36.204Z,1.90
2018-12-13T01:10:03.999Z,3.77
2018-12-13T01:12:30.753Z,1.90
2018-12-13T01:14:57.526Z,3.73
2018-12-13T01:17:24.362Z,2.17
2018-12-13T01:19:51.100Z,1.90
2018-12-13T01:22:17.808Z,2.57
2018-12-13T01:24:44.498Z,2.43
2018-12-13T01:27:11.204Z,1.87
2018-12-13T01:29:37.888Z,6.73
2018-12-13T01:32:04.592Z,3.13
2018-12-13T01:34:31.377Z,2.00
2018-12-13T01:36:58.150Z,1.73
2018-12-13T01:39:25.003Z,1.40
2018-12-13T01:41:51.708Z,4.03
2018-12-13T01:44:18.398Z,4.57
2018-12-13T01:46:45.104Z,2.60
2018-12-13T01:49:11.781Z,2.47
2018-12-13T01:51:38.480Z,2.50
2018-12-13T01:54:05.160Z,2.57
2018-12-13T01:56:32.015Z,1.77
2018-12-13T01:58:58.696Z,2.40
2018-12-13T02:01:25.674Z,2.40
2018-12-13T02:03:53.030Z,2.07
2018-12-13T02:06:20.269Z,1.93
2018-12-13T02:08:46.946Z,2.30
2018-12-13T02:11:13.655Z,2.10
2018-12-13T02:13:40.342Z,2.00
2018-12-13T02:16:07.196Z,1.90
2018-12-13T02:18:33.870Z,2.20
2018-12-13T02:21:00.908Z,1.90
2018-12-13T02:23:27.582Z,2.20
2018-12-13T02:25:54.350Z,2.10
2018-12-13T02:28:21.069Z,2.00
2018-12-13T02:30:47.750Z,2.23
2018-12-13T02:33:14.462Z,2.30
2018-12-13T02:35:41.136Z,2.40
2018-12-13T02:38:07.860Z,2.13
2018-12-13T02:40:34.545Z,1.90
2018-12-13T02:43:01.379Z,2.03
2018-12-13T02:45:28.063Z,1.73
2018-12-13T02:47:54.796Z,2.57
2018-12-13T02:50:21.471Z,1.67
2018-12-13T02:52:48.315Z,1.90
2018-12-13T02:55:14.989Z,2.27
2018-12-13T02:57:41.703Z,2.13
2018-12-13T03:00:08.551Z,1.77
2018-12-13T03:02:35.265Z,1.80
2018-12-13T03:05:01.953Z,2.90
2018-12-13T03:07:28.725Z,2.57
2018-12-13T03:09:55.406Z,2.13
2018-12-13T03:12:22.111Z,2.40
2018-12-13T03:14:48.791Z,2.10
2018-12-13T03:17:15.499Z,2.10
2018-12-13T03:19:42.179Z,17.03
2018-12-13T03:22:08.885Z,2.50
2018-12-13T03:24:35.569Z,2.47
2018-12-13T03:27:02.287Z,2.43
2018-12-13T03:29:29.060Z,2.83
2018-12-13T03:31:55.765Z,1.63
2018-12-13T03:34:22.453Z,2.00
2018-12-13T03:36:49.158Z,1.83
2018-12-13T03:39:15.839Z,5.83
2018-12-13T03:41:42.540Z,2.37
2018-12-13T03:44:09.314Z,3.23
2018-12-13T03:46:36.049Z,1.70
2018-12-13T03:49:02.785Z,2.23
2018-12-13T03:51:29.599Z,4.37
2018-12-13T03:53:56.272Z,2.97
2018-12-13T03:56:23.038Z,2.30
2018-12-13T03:58:49.715Z,3.70
2018-12-13T04:01:16.388Z,4.60
2018-12-13T04:03:43.092Z,1.70
2018-12-13T04:06:09.927Z,2.00
2018-12-13T04:08:36.669Z,5.03
2018-12-13T04:11:03.568Z,3.17
2018-12-13T04:13:30.276Z,2.27
2018-12-13T04:15:57.215Z,2.27
2018-12-13T04:18:23.919Z,2.43
2018-12-13T04:20:50.641Z,2.10
2018-12-13T04:23:17.441Z,2.30
2018-12-13T04:25:44.125Z,2.30
2018-12-13T04:28:10.826Z,2.33
2018-12-13T04:30:37.625Z,2.60
2018-12-13T04:33:04.416Z,2.23
2018-12-13T04:35:31.158Z,2.10
2018-12-13T04:37:58.189Z,3.20
2018-12-13T04:40:24.863Z,3.27
2018-12-13T04:42:51.574Z,2.00
2018-12-13T04:45:18.259Z,2.63
2018-12-13T04:47:44.973Z,2.20
2018-12-13T04:50:11.654Z,2.40
2018-12-13T04:52:38.547Z,2.37
2018-12-13T04:55:05.238Z,2.13
2018-12-13T04:57:32.061Z,2.33
2018-12-13T04:59:58.883Z,2.47
2018-12-13T05:02:25.597Z,2.23
2018-12-13T05:04:52.295Z,2.80
2018-12-13T05:07:19.000Z,2.23
2018-12-13T05:09:45.676Z,2.67
2018-12-13T05:12:12.388Z,2.03
2018-12-13T05:14:39.064Z,2.53
2018-12-13T05:17:05.792Z,2.97
2018-12-13T05:19:32.554Z,3.43
2018-12-13T05:21:59.427Z,2.23
2018-12-13T05:24:26.109Z,2.23
2018-12-13T05:26:52.783Z,2.63
2018-12-13T05:29:19.495Z,2.53
2018-12-13T05:31:46.172Z,2.80
2018-12-13T05:34:12.872Z,1.80
2018-12-13T05:36:39.602Z,6.10
2018-12-13T05:39:06.584Z,2.93
2018-12-13T05:41:33.308Z,2.17
2018-12-13T05:44:00.103Z,2.90
2018-12-13T05:46:26.844Z,3.43
2018-12-13T05:48:54.588Z,1.83
2018-12-13T05:51:21.457Z,2.37
2018-12-13T05:53:48.156Z,8.83
2018-12-13T05:56:14.830Z,3.20
2018-12-13T05:58:41.537Z,5.30
2018-12-13T06:01:08.217Z,5.67
2018-12-13T06:03:34.945Z,2.80
2018-12-13T06:06:01.681Z,4.30
2018-12-13T06:08:28.529Z,3.07
2018-12-13T06:10:55.267Z,9.70
2018-12-13T06:13:21.983Z,8.93
2018-12-13T06:15:48.659Z,5.73
2018-12-13T06:18:15.367Z,8.07
2018-12-13T06:20:42.048Z,11.13
2018-12-13T06:23:08.759Z,7.00
2018-12-13T06:25:35.539Z,5.30
2018-12-13T06:28:02.232Z,4.40
2018-12-13T06:30:29.199Z,4.57
2018-12-13T06:32:55.921Z,4.93
2018-12-13T06:35:22.639Z,3.70
2018-12-13T06:37:49.329Z,3.53
2018-12-13T06:40:16.040Z,3.37
2018-12-13T06:42:42.721Z,5.80
2018-12-13T06:45:09.484Z,4.40
2018-12-13T06:47:36.243Z,4.10
2018-12-13T06:50:04.353Z,16.42
2018-12-13T06:52:31.089Z,9.13
2018-12-13T06:54:58.035Z,5.73
2018-12-13T06:57:24.804Z,12.83
2018-12-13T06:59:51.517Z,7.63
2018-12-13T07:02:18.187Z,9.30
2018-12-13T07:04:45.348Z,8.50
2018-12-13T07:07:12.033Z,9.07
2018-12-13T07:09:38.748Z,6.43
2018-12-13T07:12:05.433Z,6.80
2018-12-13T07:14:32.225Z,13.53
2018-12-13T07:16:58.913Z,10.30
2018-12-13T07:19:25.664Z,5.10
2018-12-13T07:21:52.349Z,9.37
2018-12-13T07:24:19.062Z,36.27
2018-12-13T07:26:45.745Z,15.03
2018-12-13T07:29:12.474Z,21.83
2018-12-13T07:31:39.163Z,8.80
2018-12-13T07:34:05.879Z,11.87
2018-12-13T07:36:32.736Z,11.03
2018-12-13T07:38:59.476Z,9.43
2018-12-13T07:41:26.248Z,13.40
2018-12-13T07:43:52.944Z,10.60
2018-12-13T07:46:19.660Z,13.57
2018-12-13T07:48:46.343Z,18.90
2018-12-13T07:51:13.053Z,11.90
2018-12-13T07:53:39.741Z,12.27
2018-12-13T07:56:06.563Z,13.63
2018-12-13T07:58:33.272Z,13.60
2018-12-13T08:01:00.131Z,18.07
2018-12-13T08:03:26.870Z,9.13
2018-12-13T08:05:53.576Z,9.70
2018-12-13T08:08:21.055Z,13.10
2018-12-13T08:10:47.981Z,9.80
2018-12-13T08:13:14.662Z,6.10
2018-12-13T08:15:41.384Z,11.30
2018-12-13T08:18:08.085Z,24.13
2018-12-13T08:20:34.952Z,12.30
2018-12-13T08:23:01.753Z,5.07
2018-12-13T08:25:28.466Z,8.37
2018-12-13T08:27:55.145Z,9.60
2018-12-13T08:30:21.847Z,6.10
2018-12-13T08:32:48.533Z,19.90
2018-12-13T08:35:15.313Z,10.13
2018-12-13T08:37:42.048Z,7.90
2018-12-13T08:40:08.768Z,90.97
2018-12-13T08:42:35.450Z,56.10
2018-12-13T08:45:02.311Z,57.53
2018-12-13T08:47:29.001Z,51.33
2018-12-13T08:49:55.718Z,49.80
2018-12-13T08:52:22.412Z,62.13
2018-12-13T08:54:49.238Z,50.73
2018-12-13T08:57:16.008Z,49.63
2018-12-13T08:59:42.720Z,38.33
2018-12-13T09:02:09.409Z,41.30
2018-12-13T09:04:36.103Z,36.80
2018-12-13T09:07:02.971Z,40.53
2018-12-13T09:09:29.700Z,31.10
2018-12-13T09:11:56.412Z,41.73
2018-12-13T09:14:23.100Z,30.73
2018-12-13T09:16:49.817Z,32.07
2018-12-13T09:19:16.500Z,30.77
2018-12-13T09:21:43.223Z,29.97
2018-12-13T09:24:09.903Z,28.40
2018-12-13T09:26:36.615Z,34.30
2018-12-13T09:29:03.406Z,26.33
2018-12-13T09:31:30.175Z,25.83
2018-12-13T09:33:56.858Z,24.50
2018-12-13T09:36:23.572Z,24.67
2018-12-13T09:38:50.271Z,23.07
2018-12-13T09:41:16.984Z,24.80
2018-12-13T09:43:43.672Z,19.67
2018-12-13T09:46:10.397Z,24.43
2018-12-13T09:48:37.080Z,21.73
2018-12-13T09:51:03.911Z,23.77
2018-12-13T09:53:30.610Z,23.43
2018-12-13T09:55:57.319Z,18.40
2018-12-13T09:58:24.071Z,21.40
2018-12-13T10:00:50.842Z,24.10
2018-12-13T10:03:17.519Z,16.00
2018-12-13T10:05:44.239Z,23.37
2018-12-13T10:08:10.920Z,24.33
2018-12-13T10:10:37.633Z,16.67
2018-12-13T10:13:04.379Z,16.07
2018-12-13T10:15:32.241Z,21.20
2018-12-13T10:17:59.208Z,20.87
2018-12-13T10:20:25.914Z,21.67
2018-12-13T10:22:52.589Z,19.07
2018-12-13T10:25:19.305Z,13.03
2018-12-13T10:27:45.984Z,17.50
2018-12-13T10:30:12.771Z,16.40
2018-12-13T10:32:39.595Z,19.13
2018-12-13T10:35:11.331Z,18.07
2018-12-13T10:37:35.182Z,13.97
2018-12-13T10:40:02.168Z,14.23
2018-12-13T10:42:28.929Z,12.80
2018-12-13T10:44:55.616Z,19.23
2018-12-13T10:47:22.407Z,14.17
2018-12-13T10:49:49.098Z,18.90
2018-12-13T10:52:15.811Z,20.77
2018-12-13T10:54:42.492Z,14.50
2018-12-13T10:57:09.396Z,12.77
2018-12-13T10:59:36.130Z,13.17
2018-12-13T11:02:04.870Z,13.77
2018-12-13T11:04:31.605Z,10.23
2018-12-13T11:06:58.390Z,16.77
2018-12-13T11:09:25.068Z,10.87
2018-12-13T11:11:51.789Z,12.87
2018-12-13T11:14:18.463Z,8.00
2018-12-13T11:16:45.175Z,10.80
2018-12-13T11:19:11.865Z,9.40
2018-12-13T11:21:38.583Z,10.00
2018-12-13T11:24:05.314Z,8.53
2018-12-13T11:26:32.030Z,11.67
2018-12-13T11:29:04.723Z,10.87
2018-12-13T11:31:31.435Z,10.97
2018-12-13T11:33:58.116Z,10.47
2018-12-13T11:36:24.832Z,12.90
2018-12-13T11:38:51.511Z,11.70
2018-12-13T11:41:18.211Z,9.93
2018-12-13T11:43:44.917Z,9.13
2018-12-13T11:46:11.624Z,12.70
2018-12-13T11:48:38.298Z,9.20
2018-12-13T11:51:05.177Z,11.47
2018-12-13T11:53:32.139Z,11.57
2018-12-13T11:55:58.814Z,9.70
2018-12-13T11:58:25.531Z,11.07
2018-12-13T12:00:52.212Z,8.97
2018-12-13T12:03:18.928Z,11.40
2018-12-13T12:05:45.599Z,9.70
2018-12-13T12:08:12.309Z,9.67
2018-12-13T12:10:38.989Z,9.00
2018-12-13T12:13:05.769Z,9.07
2018-12-13T12:15:32.572Z,9.67
2018-12-13T12:17:59.289Z,10.57
2018-12-13T12:20:25.966Z,7.40
2018-12-13T12:22:52.668Z,6.83
2018-12-13T12:25:19.344Z,9.03
2018-12-13T12:27:46.042Z,9.17
2018-12-13T12:30:12.725Z,8.83
2018-12-13T12:32:39.435Z,9.60
2018-12-13T12:35:06.233Z,9.10
2018-12-13T12:37:32.987Z,8.27
2018-12-13T12:39:59.672Z,12.53
2018-12-13T12:42:26.376Z,10.27
2018-12-13T12:44:53.056Z,8.50
2018-12-13T12:47:19.769Z,15.17
2018-12-13T12:49:46.448Z,8.77
2018-12-13T12:52:13.152Z,8.13
2018-12-13T12:54:39.832Z,8.33
2018-12-13T12:57:06.603Z,7.93
2018-12-13T12:59:33.316Z,8.90
2018-12-13T13:02:00.027Z,7.83
2018-12-13T13:04:26.703Z,8.30
2018-12-13T13:06:53.402Z,7.13
2018-12-13T13:09:24.927Z,10.40
2018-12-13T13:11:48.818Z,9.03
2018-12-13T13:14:15.755Z,8.50
2018-12-13T13:16:42.497Z,7.73
2018-12-13T13:19:09.275Z,5.83
2018-12-13T13:21:36.100Z,7.70
2018-12-13T13:24:02.807Z,7.40
2018-12-13T13:26:29.478Z,9.63
2018-12-13T13:28:56.187Z,11.33
2018-12-13T13:31:22.860Z,8.73
2018-12-13T13:33:49.581Z,11.60
2018-12-13T13:36:16.310Z,8.00
2018-12-13T13:38:43.021Z,6.93
2018-12-13T13:41:09.756Z,10.03
2018-12-13T13:43:36.524Z,8.37
2018-12-13T13:46:03.268Z,6.83
2018-12-13T13:48:29.972Z,13.20
2018-12-13T13:50:56.659Z,7.93
2018-12-13T13:53:23.354Z,7.40
2018-12-13T13:55:50.036Z,6.90
2018-12-13T13:58:16.808Z,6.57
2018-12-13T14:00:43.483Z,9.17
2018-12-13T14:03:10.212Z,7.00
2018-12-13T14:05:36.984Z,8.60
2018-12-13T14:08:03.689Z,7.70
2018-12-13T14:10:30.366Z,8.97
2018-12-13T14:12:57.064Z,8.73
2018-12-13T14:15:23.745Z,9.47
2018-12-13T14:17:50.443Z,7.23
2018-12-13T14:20:17.130Z,8.55
2018-12-13T14:22:44.297Z,6.27
2018-12-13T14:25:11.024Z,9.38
2018-12-13T14:27:37.838Z,8.17
2018-12-13T14:30:05.145Z,8.47
2018-12-13T14:32:31.834Z,8.67
2018-12-13T14:34:58.508Z,6.20
2018-12-13T14:37:25.215Z,9.13
2018-12-13T14:39:51.897Z,10.00
2018-12-13T14:42:18.603Z,6.70
2018-12-13T14:44:45.285Z,10.27
2018-12-13T14:47:11.964Z,9.40
2018-12-13T14:49:38.723Z,8.37
2018-12-13T14:52:05.391Z,5.87
2018-12-13T14:54:32.097Z,9.10
2018-12-13T14:56:58.776Z,8.33
2018-12-13T14:59:25.493Z,8.53
2018-12-13T15:01:52.163Z,6.63
2018-12-13T15:04:18.907Z,9.00
2018-12-13T15:06:45.673Z,7.53
2018-12-13T15:09:12.380Z,8.77
2018-12-13T15:11:39.185Z,7.23
2018-12-13T15:14:05.892Z,12.20
2018-12-13T15:16:32.581Z,15.50
2018-12-13T15:18:59.295Z,8.70
2018-12-13T15:21:25.970Z,8.57
2018-12-13T15:23:52.677Z,7.90
2018-12-13T15:26:19.438Z,9.63
2018-12-13T15:28:46.144Z,9.17
2018-12-13T15:31:12.824Z,6.70
2018-12-13T15:33:39.661Z,5.73
2018-12-13T15:36:06.344Z,8.83
2018-12-13T15:38:33.045Z,6.43
2018-12-13T15:40:59.717Z,6.73
2018-12-13T15:43:26.426Z,9.17
2018-12-13T15:45:53.099Z,9.00
2018-12-13T15:48:19.795Z,5.10
2018-12-13T15:50:46.479Z,7.20
2018-12-13T15:53:13.242Z,10.07
2018-12-13T15:55:40.169Z,6.43
2018-12-13T15:58:06.926Z,9.27
2018-12-13T16:00:33.684Z,8.13
2018-12-13T16:03:00.389Z,7.83
2018-12-13T16:05:27.074Z,7.20
2018-12-13T16:07:53.772Z,6.50
2018-12-13T16:10:20.452Z,6.07
2018-12-13T16:12:47.160Z,9.37
2018-12-13T16:15:14.224Z,8.60
2018-12-13T16:17:40.890Z,9.10
2018-12-13T16:20:07.956Z,6.40
2018-12-13T16:22:34.632Z,7.33
2018-12-13T16:25:01.343Z,9.53
2018-12-13T16:27:28.459Z,6.77
2018-12-13T16:29:55.235Z,9.53
2018-12-13T16:32:21.922Z,7.07
2018-12-13T16:34:48.671Z,8.77
2018-12-13T16:37:15.358Z,8.60
2018-12-13T16:39:42.164Z,7.33
2018-12-13T16:42:09.025Z,5.83
2018-12-13T16:44:37.021Z,7.40
2018-12-13T16:47:03.736Z,7.10
2018-12-13T16:49:30.449Z,8.27
2018-12-13T16:51:57.134Z,7.90
2018-12-13T16:54:23.838Z,6.27
2018-12-13T16:56:50.518Z,6.20
2018-12-13T16:59:17.222Z,6.60
2018-12-13T17:01:43.904Z,7.80
2018-12-13T17:04:10.724Z,6.20
2018-12-13T17:06:37.407Z,6.60
2018-12-13T17:09:04.814Z,6.40
2018-12-13T17:11:31.496Z,7.80
2018-12-13T17:13:58.204Z,6.80
2018-12-13T17:16:24.890Z,9.03
2018-12-13T17:18:51.595Z,7.70
2018-12-13T17:21:18.275Z,7.33
2018-12-13T17:23:45.120Z,12.47
2018-12-13T17:26:11.936Z,10.67
2018-12-13T17:28:39.065Z,8.10
2018-12-13T17:31:05.743Z,8.17
2018-12-13T17:33:32.425Z,9.70
2018-12-13T17:35:59.137Z,6.53
2018-12-13T17:38:25.815Z,9.70
2018-12-13T17:40:52.530Z,10.63
2018-12-13T17:43:19.317Z,6.90
2018-12-13T17:45:46.044Z,7.00
2018-12-13T17:48:12.831Z,9.53
2018-12-13T17:50:39.843Z,7.80
2018-12-13T17:53:06.532Z,8.80
2018-12-13T17:55:33.250Z,9.87
2018-12-13T17:57:59.938Z,11.47
2018-12-13T18:00:26.643Z,6.70
2018-12-13T18:02:53.319Z,7.50
2018-12-13T18:05:20.029Z,8.77
2018-12-13T18:07:46.739Z,10.70
2018-12-13T18:10:13.593Z,8.83
2018-12-13T18:12:40.449Z,8.33
2018-12-13T18:15:07.154Z,7.80
2018-12-13T18:17:33.913Z,11.57
2018-12-13T18:20:00.621Z,8.73
2018-12-13T18:22:27.304Z,10.70
2018-12-13T18:24:54.095Z,12.73
2018-12-13T18:27:20.781Z,8.37
2018-12-13T18:29:47.577Z,10.00
2018-12-13T18:32:14.285Z,9.23
2018-12-13T18:34:41.186Z,11.83
2018-12-13T18:37:07.957Z,7.10
2018-12-13T18:39:34.656Z,9.67
2018-12-13T18:42:01.340Z,7.50
2018-12-13T18:44:28.046Z,9.87
2018-12-13T18:46:54.739Z,12.73
2018-12-13T18:49:21.471Z,10.43
2018-12-13T18:51:48.155Z,9.57
2018-12-13T18:54:14.841Z,16.00
2018-12-13T18:56:41.626Z,10.10
2018-12-13T18:59:08.302Z,8.57
2018-12-13T19:01:35.480Z,13.90
2018-12-13T19:04:02.174Z,15.37
2018-12-13T19:06:28.896Z,7.00
2018-12-13T19:08:55.576Z,10.60
2018-12-13T19:11:22.351Z,7.50
2018-12-13T19:13:49.049Z,6.27
2018-12-13T19:16:15.765Z,11.67
2018-12-13T19:18:42.623Z,7.20
2018-12-13T19:21:09.420Z,10.00
2018-12-13T19:23:36.106Z,8.90
2018-12-13T19:26:02.832Z,5.40
2018-12-13T19:28:29.511Z,12.73
2018-12-13T19:30:56.229Z,7.70
2018-12-13T19:33:22.910Z,10.90
2018-12-13T19:35:49.616Z,9.77
2018-12-13T19:38:16.343Z,8.20
2018-12-13T19:40:48.383Z,11.20
2018-12-13T19:43:11.949Z,10.73
2018-12-13T19:45:38.669Z,11.03
2018-12-13T19:48:05.353Z,9.10
2018-12-13T19:50:32.884Z,11.00
2018-12-13T19:52:59.559Z,6.17
2018-12-13T19:55:26.279Z,9.40
2018-12-13T19:57:52.960Z,8.37
2018-12-13T20:00:19.948Z,10.63
2018-12-13T20:02:46.633Z,9.67
2018-12-13T20:05:13.642Z,6.97
2018-12-13T20:07:40.505Z,9.73
2018-12-13T20:10:07.460Z,10.67
2018-12-13T20:12:34.163Z,8.40
2018-12-13T20:15:00.861Z,8.77
2018-12-13T20:17:27.650Z,14.17
2018-12-13T20:19:54.332Z,12.83
2018-12-13T20:22:21.130Z,10.80
2018-12-13T20:24:47.869Z,12.07
2018-12-13T20:27:14.604Z,13.70
2018-12-13T20:29:41.899Z,7.40
2018-12-13T20:32:08.657Z,18.60
2018-12-13T20:34:35.337Z,13.00
2018-12-13T20:37:02.044Z,6.37
2018-12-13T20:39:29.611Z,10.23
2018-12-13T20:41:56.335Z,8.10
2018-12-13T20:44:23.030Z,7.13
2018-12-13T20:46:49.745Z,9.87
2018-12-13T20:49:16.455Z,8.37
2018-12-13T20:51:43.353Z,9.07
2018-12-13T20:54:10.103Z,9.10
2018-12-13T20:56:36.812Z,8.47
2018-12-13T20:59:03.496Z,8.53
2018-12-13T21:01:30.200Z,7.77
2018-12-13T21:03:56.905Z,10.07
2018-12-13T21:06:23.612Z,9.00
2018-12-13T21:08:50.324Z,14.13
2018-12-13T21:11:17.689Z,14.87
2018-12-13T21:13:44.541Z,9.17
2018-12-13T21:16:11.288Z,13.27
2018-12-13T21:18:38.054Z,6.20
2018-12-13T21:21:04.752Z,10.50
2018-12-13T21:23:31.464Z,8.00
2018-12-13T21:25:58.216Z,31.27
2018-12-13T21:28:24.929Z,9.97
2018-12-13T21:30:51.621Z,9.40
2018-12-13T21:33:18.480Z,10.53
2018-12-13T21:35:45.179Z,11.37
2018-12-13T21:38:11.960Z,17.13
2018-12-13T21:40:38.688Z,7.90
2018-12-13T21:43:05.398Z,9.37
2018-12-13T21:45:32.078Z,9.47
2018-12-13T21:47:58.792Z,9.70
2018-12-13T21:50:25.471Z,7.40
2018-12-13T21:52:52.188Z,10.97
2018-12-13T21:55:19.092Z,9.70
2018-12-13T21:57:45.851Z,8.10
2018-12-13T22:00:12.761Z,10.30
2018-12-13T22:02:39.472Z,9.70
2018-12-13T22:05:06.234Z,10.90
2018-12-13T22:07:32.980Z,7.00
2018-12-13T22:09:59.659Z,8.43
2018-12-13T22:12:26.362Z,10.10
2018-12-13T22:14:53.149Z,7.17
2018-12-13T22:17:19.854Z,10.30
2018-12-13T22:19:46.649Z,8.10
2018-12-13T22:22:13.486Z,8.27
2018-12-13T22:24:40.231Z,8.40
2018-12-13T22:27:06.948Z,5.90
2018-12-13T22:29:33.630Z,7.70
2018-12-13T22:32:00.471Z,6.90
2018-12-13T22:34:27.357Z,10.20
2018-12-13T22:36:57.947Z,6.40
2018-12-13T22:39:24.653Z,9.07
2018-12-13T22:41:51.333Z,6.37
2018-12-13T22:44:18.093Z,10.00
2018-12-13T22:46:44.880Z,8.97
2018-12-13T22:49:11.626Z,6.83
2018-12-13T22:51:38.303Z,9.90
2018-12-13T22:54:05.024Z,8.20
2018-12-13T22:56:31.787Z,14.90
2018-12-13T22:58:58.487Z,8.37
2018-12-13T23:01:25.165Z,8.10
2018-12-13T23:03:51.876Z,8.43
2018-12-13T23:06:18.555Z,7.60
2018-12-13T23:08:45.350Z,7.70
2018-12-13T23:11:12.460Z,12.20
2018-12-13T23:13:39.163Z,7.20
2018-12-13T23:16:05.843Z,8.37
2018-12-13T23:18:33.447Z,9.27
2018-12-13T23:21:00.129Z,6.73
2018-12-13T23:23:26.854Z,10.87
2018-12-13T23:25:53.533Z,8.50
2018-12-13T23:28:20.402Z,7.33
2018-12-13T23:30:47.089Z,10.40
2018-12-13T23:33:13.976Z,11.80
2018-12-13T23:35:40.690Z,9.07
2018-12-13T23:38:07.387Z,8.50
2018-12-13T23:40:34.070Z,7.40
2018-12-13T23:43:00.792Z,11.17
2018-12-13T23:45:27.467Z,10.37
2018-12-13T23:47:54.265Z,9.87
2018-12-13T23:50:21.046Z,7.07
2018-12-13T23:52:47.911Z,8.20
2018-12-13T23:55:14.743Z,12.70
2018-12-13T23:57:41.452Z,7.17
